createdAt,value
2019-05-30T00:01:23.683Z,99.90
2019-05-30T00:03:53.980Z,99.90
2019-05-30T00:06:24.367Z,99.90
2019-05-30T00:08:54.313Z,99.90
2019-05-30T00:11:24.379Z,99.90
2019-05-30T00:13:54.584Z,99.90
2019-05-30T00:16:24.489Z,99.90
2019-05-30T00:18:54.635Z,99.90
2019-05-30T00:21:25.496Z,99.90
2019-05-30T00:23:55.764Z,99.90
2019-05-30T00:26:25.443Z,99.90
2019-05-30T00:28:56.181Z,99.90
2019-05-30T00:31:26.001Z,99.90
2019-05-30T00:33:55.734Z,99.90
2019-05-30T00:36:25.384Z,99.90
2019-05-30T00:38:55.651Z,99.90
2019-05-30T00:41:26.378Z,99.90
2019-05-30T00:43:56.054Z,99.90
2019-05-30T00:46:25.783Z,99.90
2019-05-30T00:48:56.266Z,99.90
2019-05-30T00:51:30.667Z,99.90
2019-05-30T00:54:02.892Z,99.90
2019-05-30T00:56:32.629Z,99.90
2019-05-30T00:59:02.745Z,99.90
2019-05-30T01:01:32.439Z,99.90
2019-05-30T01:04:02.899Z,99.90
2019-05-30T01:06:32.848Z,99.90
2019-05-30T01:09:03.153Z,99.90
2019-05-30T01:11:32.953Z,99.90
2019-05-30T01:14:03.749Z,99.90
2019-05-30T01:16:34.490Z,99.90
2019-05-30T01:19:05.283Z,99.90
2019-05-30T01:21:35.211Z,99.90
2019-05-30T01:24:05.761Z,99.90
2019-05-30T01:26:35.711Z,99.90
2019-05-30T01:29:05.581Z,99.90
2019-05-30T01:31:35.545Z,99.90
2019-05-30T01:34:05.929Z,99.90
2019-05-30T01:36:35.665Z,99.90
2019-05-30T01:39:07.987Z,99.90
2019-05-30T01:41:38.080Z,99.90
2019-05-30T01:44:08.341Z,99.90
2019-05-30T01:46:39.325Z,99.90
2019-05-30T01:49:11.945Z,99.90
2019-05-30T01:51:41.611Z,99.90
2019-05-30T01:54:11.731Z,99.90
2019-05-30T01:56:41.315Z,99.90
2019-05-30T01:59:10.957Z,99.90
2019-05-30T02:01:40.788Z,99.90
2019-05-30T02:04:10.421Z,99.90
2019-05-30T02:06:40.115Z,99.90
2019-05-30T02:09:10.880Z,99.90
2019-05-30T02:11:41.044Z,99.90
2019-05-30T02:14:10.680Z,99.90
2019-05-30T02:16:40.284Z,99.90
2019-05-30T02:19:10.571Z,99.90
2019-05-30T02:21:41.684Z,99.90
2019-05-30T02:24:12.207Z,99.90
2019-05-30T02:26:43.060Z,99.90
2019-05-30T02:29:12.807Z,99.90
2019-05-30T02:31:42.308Z,99.90
2019-05-30T02:34:12.402Z,99.90
2019-05-30T02:36:42.496Z,99.90
2019-05-30T02:39:12.393Z,99.90
2019-05-30T02:41:42.260Z,99.90
2019-05-30T02:44:12.392Z,99.90
2019-05-30T02:46:42.550Z,99.90
2019-05-30T02:49:13.836Z,99.90
2019-05-30T02:51:43.529Z,99.90
2019-05-30T02:54:13.426Z,99.90
2019-05-30T02:56:43.353Z,99.90
2019-05-30T02:59:13.692Z,99.90
2019-05-30T03:01:59.888Z,99.90
2019-05-30T03:04:15.109Z,99.90
2019-05-30T03:06:44.817Z,99.90
2019-05-30T03:09:14.483Z,99.90
2019-05-30T03:11:44.228Z,99.90
2019-05-30T03:14:19.043Z,99.90
2019-05-30T03:16:45.241Z,99.90
2019-05-30T03:19:14.917Z,99.90
2019-05-30T03:21:44.595Z,99.90
2019-05-30T03:24:14.465Z,99.90
2019-05-30T03:26:44.375Z,99.90
2019-05-30T03:29:14.461Z,99.90
2019-05-30T03:31:46.874Z,99.90
2019-05-30T03:34:26.320Z,99.90
2019-05-30T03:36:47.775Z,99.90
2019-05-30T03:39:17.624Z,99.90
2019-05-30T03:41:47.240Z,99.90
2019-05-30T03:44:16.902Z,99.90
2019-05-30T03:46:49.609Z,99.90
2019-05-30T03:49:22.259Z,99.90
2019-05-30T03:51:53.457Z,99.90
2019-05-30T03:54:25.183Z,99.90
2019-05-30T03:56:57.896Z,99.90
2019-05-30T03:59:30.541Z,99.90
2019-05-30T04:02:03.291Z,99.90
2019-05-30T04:04:35.946Z,99.90
2019-05-30T04:07:09.132Z,99.90
2019-05-30T04:09:41.317Z,99.90
2019-05-30T04:12:16.032Z,99.90
2019-05-30T04:14:48.382Z,99.90
2019-05-30T04:17:19.799Z,99.90
2019-05-30T04:19:49.379Z,99.90
2019-05-30T04:22:19.599Z,99.90
2019-05-30T04:24:49.824Z,99.90
2019-05-30T04:27:19.467Z,99.90
2019-05-30T04:29:49.172Z,99.90
2019-05-30T04:32:18.826Z,99.90
2019-05-30T04:34:48.761Z,99.90
2019-05-30T04:37:19.054Z,99.90
2019-05-30T04:39:50.477Z,99.90
2019-05-30T04:42:20.792Z,99.90
2019-05-30T04:44:50.588Z,99.90
2019-05-30T04:47:20.818Z,99.90
2019-05-30T04:49:56.478Z,99.90
2019-05-30T04:52:26.267Z,99.90
2019-05-30T04:54:58.953Z,99.90
2019-05-30T04:57:32.996Z,99.90
2019-05-30T05:00:07.141Z,99.90
2019-05-30T05:02:36.853Z,99.90
2019-05-30T05:05:08.402Z,99.90
2019-05-30T05:07:38.125Z,99.90
2019-05-30T05:10:08.242Z,99.90
2019-05-30T05:12:40.957Z,99.90
2019-05-30T05:15:12.296Z,99.90
2019-05-30T05:17:42.443Z,99.90
2019-05-30T05:20:13.259Z,99.90
2019-05-30T05:22:42.982Z,99.90
2019-05-30T05:25:13.313Z,99.90
2019-05-30T05:27:43.377Z,99.90
2019-05-30T05:30:18.670Z,99.90
2019-05-30T05:36:09.015Z,99.90
2019-05-30T05:38:35.882Z,99.90
2019-05-30T05:41:05.728Z,99.90
2019-05-30T05:43:35.736Z,99.90
2019-05-30T05:46:08.436Z,99.90
2019-05-30T05:48:53.599Z,99.90
2019-05-30T05:51:24.702Z,99.90
2019-05-30T05:54:07.431Z,99.90
2019-05-30T05:56:47.433Z,99.90
2019-05-30T05:59:23.071Z,99.90
2019-05-30T06:01:53.298Z,99.90
2019-05-30T06:08:07.572Z,99.90
2019-05-30T06:10:38.875Z,99.90
2019-05-30T06:13:13.012Z,99.70
2019-05-30T06:15:49.324Z,97.80
2019-05-30T06:18:20.046Z,97.20
2019-05-30T06:24:15.087Z,96.30
2019-05-30T06:26:46.837Z,95.40
2019-05-30T06:29:20.109Z,93.90
2019-05-30T06:32:07.502Z,93.30
2019-05-30T06:38:42.936Z,92.20
2019-05-30T06:44:37.191Z,90.60
2019-05-30T06:47:36.983Z,91.10
2019-05-30T06:50:20.592Z,89.20
2019-05-30T06:53:01.675Z,85.90
2019-05-30T06:55:27.317Z,84.70
2019-05-30T06:57:57.338Z,83.60
2019-05-30T07:00:28.124Z,83.20
2019-05-30T07:02:58.168Z,82.20
2019-05-30T07:05:29.943Z,83.80
2019-05-30T07:08:05.336Z,82.60
2019-05-30T07:10:34.904Z,80.30
2019-05-30T07:13:04.533Z,77.50
2019-05-30T07:15:34.520Z,78.10
2019-05-30T07:18:04.127Z,77.90
2019-05-30T07:20:33.864Z,79.30
2019-05-30T07:23:05.514Z,80.70
2019-05-30T07:25:40.195Z,83.90
2019-05-30T07:28:10.500Z,85.70
2019-05-30T07:30:40.127Z,80.80
2019-05-30T07:33:09.855Z,79.10
2019-05-30T07:35:39.511Z,78.00
2019-05-30T07:38:09.235Z,77.80
2019-05-30T07:40:40.135Z,78.40
2019-05-30T07:43:09.812Z,79.30
2019-05-30T07:45:41.191Z,82.10
2019-05-30T07:48:10.912Z,83.50
2019-05-30T07:50:40.577Z,83.00
2019-05-30T07:53:37.229Z,80.90
2019-05-30T07:56:30.946Z,77.80
2019-05-30T07:59:03.906Z,76.00
2019-05-30T08:01:34.663Z,71.20
2019-05-30T08:04:04.531Z,68.50
2019-05-30T08:06:34.225Z,67.20
2019-05-30T08:09:05.412Z,69.90
2019-05-30T08:11:35.136Z,73.40
2019-05-30T08:14:04.984Z,74.60
2019-05-30T08:16:35.506Z,75.70
2019-05-30T08:19:05.688Z,77.40
2019-05-30T08:21:38.289Z,77.30
2019-05-30T08:24:13.170Z,77.60
2019-05-30T08:26:44.360Z,76.30
2019-05-30T08:29:16.994Z,75.50
2019-05-30T08:32:08.979Z,74.10
2019-05-30T08:35:10.780Z,74.20
2019-05-30T08:38:09.982Z,74.00
2019-05-30T08:47:34.094Z,75.80
2019-05-30T08:50:30.225Z,78.30
2019-05-30T08:53:18.360Z,79.00
2019-05-30T08:55:55.739Z,79.20
2019-05-30T09:02:38.793Z,82.30
2019-05-30T09:06:02.613Z,81.30
2019-05-30T09:09:42.528Z,80.00
2019-05-30T09:12:34.228Z,80.30
2019-05-30T09:32:35.852Z,80.20
2019-05-30T09:35:11.745Z,78.20
2019-05-30T09:37:53.519Z,76.80
2019-05-30T09:41:29.278Z,77.00
2019-05-30T09:43:31.042Z,76.30
2019-05-30T09:46:22.236Z,75.10
2019-05-30T09:48:57.866Z,73.50
2019-05-30T09:51:42.494Z,74.10
2019-05-30T09:54:15.027Z,73.60
2019-05-30T09:56:59.556Z,73.40
2019-05-30T09:59:53.341Z,75.40
2019-05-30T10:02:22.967Z,76.40
2019-05-30T10:04:52.651Z,75.20
2019-05-30T10:07:26.083Z,76.10
2019-05-30T10:10:09.427Z,76.70
2019-05-30T10:12:39.298Z,77.70
2019-05-30T10:15:15.543Z,76.60
2019-05-30T10:17:46.271Z,77.10
2019-05-30T10:20:42.093Z,78.00
2019-05-30T10:23:12.056Z,78.20
2019-05-30T10:25:54.392Z,78.90
2019-05-30T10:28:29.808Z,77.90
2019-05-30T10:30:59.445Z,77.00
2019-05-30T10:33:32.552Z,76.60
2019-05-30T10:36:02.273Z,76.70
2019-05-30T10:38:33.627Z,77.30
2019-05-30T10:41:09.067Z,76.90
2019-05-30T10:43:38.888Z,76.30
2019-05-30T10:46:54.477Z,75.90
2019-05-30T10:49:49.960Z,77.30
2019-05-30T10:52:20.474Z,76.30
2019-05-30T10:55:22.053Z,76.20
2019-05-30T10:57:51.874Z,77.70
2019-05-30T11:00:26.690Z,76.80
2019-05-30T11:09:54.844Z,74.40
2019-05-30T11:12:31.048Z,73.10
2019-05-30T11:22:50.046Z,72.80
2019-05-30T11:32:59.387Z,69.90
2019-05-30T11:35:44.359Z,70.20
2019-05-30T11:42:23.879Z,67.80
2019-05-30T11:48:16.001Z,70.60
2019-05-30T11:51:04.087Z,70.90
2019-05-30T11:53:58.487Z,68.20
2019-05-30T11:56:35.030Z,69.00
2019-05-30T11:59:18.218Z,71.20
2019-05-30T12:01:48.047Z,72.20
2019-05-30T12:04:34.931Z,72.20
2019-05-30T12:07:13.718Z,72.50
2019-05-30T12:12:46.900Z,71.10
2019-05-30T12:15:18.890Z,72.70
2019-05-30T12:17:53.679Z,73.40
2019-05-30T12:20:31.719Z,72.30
2019-05-30T12:23:04.962Z,69.50
2019-05-30T12:25:45.566Z,68.40
2019-05-30T12:28:21.162Z,66.20
2019-05-30T12:30:56.858Z,65.60
2019-05-30T12:33:46.220Z,66.70
2019-05-30T12:36:26.105Z,68.00
2019-05-30T12:38:56.353Z,68.90
2019-05-30T12:41:31.499Z,70.40
2019-05-30T12:44:01.417Z,71.70
2019-05-30T12:46:31.362Z,71.60
2019-05-30T12:53:51.979Z,70.30
2019-05-30T12:59:28.758Z,67.50
2019-05-30T13:02:19.401Z,68.00
2019-05-30T13:11:26.702Z,70.10
2019-05-30T13:11:44.326Z,72.10
2019-05-30T13:34:01.066Z,68.70
2019-05-30T13:35:07.983Z,67.60
2019-05-30T13:38:05.344Z,68.60
2019-05-30T13:41:01.485Z,70.00
2019-05-30T13:43:46.055Z,69.00
2019-05-30T13:46:21.508Z,67.80
2019-05-30T13:48:54.363Z,68.00
2019-05-30T13:51:24.200Z,67.30
2019-05-30T13:53:55.176Z,65.70
2019-05-30T13:56:24.896Z,64.10
2019-05-30T13:58:59.881Z,64.80
2019-05-30T14:01:29.601Z,66.40
2019-05-30T14:04:02.946Z,67.10
2019-05-30T14:06:32.204Z,66.30
2019-05-30T14:09:08.680Z,69.90
2019-05-30T14:11:42.678Z,71.80
2019-05-30T14:14:12.277Z,73.70
2019-05-30T14:16:43.527Z,73.20
2019-05-30T14:19:28.393Z,72.60
2019-05-30T14:22:03.133Z,71.70
2019-05-30T14:24:33.335Z,70.40
2019-05-30T14:27:03.452Z,69.30
2019-05-30T14:29:33.200Z,70.40
2019-05-30T14:32:07.885Z,71.60
2019-05-30T14:34:37.755Z,72.30
2019-05-30T14:43:47.801Z,70.40
2019-05-30T14:46:17.484Z,71.10
2019-05-30T14:48:47.181Z,72.20
2019-05-30T14:51:17.749Z,72.30
2019-05-30T14:53:48.958Z,72.20
2019-05-30T14:56:18.511Z,71.10
2019-05-30T14:58:48.289Z,69.90
2019-05-30T15:01:17.919Z,70.40
2019-05-30T15:03:50.850Z,71.60
2019-05-30T15:06:20.582Z,71.40
2019-05-30T15:08:50.217Z,71.10
2019-05-30T15:11:19.961Z,72.30
2019-05-30T15:13:52.487Z,73.50
2019-05-30T15:16:22.205Z,74.20
2019-05-30T15:18:52.110Z,74.90
2019-05-30T15:21:21.840Z,74.80
2019-05-30T15:23:53.100Z,75.80
2019-05-30T15:26:24.100Z,76.40
2019-05-30T15:28:54.991Z,75.90
2019-05-30T15:31:33.931Z,75.10
2019-05-30T15:34:24.448Z,76.10
2019-05-30T15:37:09.114Z,76.10
2019-05-30T15:42:30.517Z,76.70
2019-05-30T15:45:08.057Z,77.00
2019-05-30T15:47:46.356Z,76.20
2019-05-30T15:50:17.610Z,76.30
2019-05-30T15:52:48.513Z,76.70
2019-05-30T15:55:31.577Z,76.30
2019-05-30T15:58:09.388Z,77.70
2019-05-30T16:00:38.485Z,80.10
2019-05-30T16:03:08.121Z,78.30
2019-05-30T16:05:37.793Z,72.00
2019-05-30T16:08:08.671Z,69.20
2019-05-30T16:10:38.331Z,69.50
2019-05-30T16:13:08.369Z,70.10
2019-05-30T16:15:38.017Z,71.70
2019-05-30T16:18:08.659Z,72.50
2019-05-30T16:20:39.884Z,73.40
2019-05-30T16:23:41.501Z,73.60
2019-05-30T16:36:03.828Z,75.30
2019-05-30T16:38:33.470Z,76.10
2019-05-30T16:41:03.075Z,77.50
2019-05-30T16:43:32.798Z,77.10
2019-05-30T16:46:02.384Z,77.00
2019-05-30T16:48:32.127Z,77.40
2019-05-30T16:51:01.797Z,75.80
2019-05-30T16:53:31.402Z,75.00
2019-05-30T16:56:01.009Z,74.60
2019-05-30T16:58:30.649Z,74.90
2019-05-30T17:01:01.160Z,76.90
2019-05-30T17:03:31.350Z,75.10
2019-05-30T17:06:01.021Z,73.80
2019-05-30T17:08:30.634Z,73.00
2019-05-30T17:11:00.324Z,70.70
2019-05-30T17:13:31.349Z,71.10
2019-05-30T17:16:01.218Z,71.80
2019-05-30T17:18:30.797Z,72.60
2019-05-30T17:21:00.406Z,73.00
2019-05-30T17:23:30.025Z,74.50
2019-05-30T17:25:59.741Z,76.30
2019-05-30T17:28:29.364Z,77.10
2019-05-30T17:30:58.940Z,78.30
2019-05-30T17:33:28.560Z,76.20
2019-05-30T17:35:58.184Z,74.70
2019-05-30T17:38:28.771Z,75.10
2019-05-30T17:40:58.444Z,75.80
2019-05-30T17:43:29.186Z,78.90
2019-05-30T17:45:59.153Z,79.70
2019-05-30T17:48:29.737Z,79.10
2019-05-30T17:50:59.757Z,78.20
2019-05-30T17:53:30.086Z,79.30
2019-05-30T17:55:59.855Z,80.80
2019-05-30T17:58:30.196Z,82.30
2019-05-30T18:01:00.040Z,82.20
2019-05-30T18:03:30.735Z,82.60
2019-05-30T18:06:00.401Z,82.00
2019-05-30T18:08:31.239Z,82.00
2019-05-30T18:11:01.379Z,82.40
2019-05-30T18:13:31.298Z,82.70
2019-05-30T18:16:02.578Z,83.30
2019-05-30T18:18:32.181Z,84.30
2019-05-30T18:21:01.863Z,84.40
2019-05-30T18:23:31.782Z,84.30
2019-05-30T18:26:01.587Z,84.20
2019-05-30T18:28:32.025Z,85.00
2019-05-30T18:31:01.799Z,85.90
2019-05-30T18:33:32.566Z,86.30
2019-05-30T18:36:02.411Z,87.30
2019-05-30T18:38:32.679Z,86.70
2019-05-30T18:41:11.275Z,88.20
2019-05-30T18:43:33.795Z,88.60
2019-05-30T18:46:03.365Z,88.20
2019-05-30T18:48:33.405Z,88.70
2019-05-30T18:51:03.077Z,88.90
2019-05-30T18:53:32.788Z,88.60
2019-05-30T18:56:02.417Z,88.80
2019-05-30T18:58:33.219Z,89.70
2019-05-30T19:01:02.940Z,90.10
2019-05-30T19:03:33.385Z,90.20
2019-05-30T19:06:03.373Z,90.50
2019-05-30T19:08:34.215Z,91.20
2019-05-30T19:11:04.191Z,91.70
2019-05-30T19:13:33.721Z,92.00
2019-05-30T19:16:03.361Z,91.50
2019-05-30T19:18:33.648Z,91.20
2019-05-30T19:21:03.561Z,91.10
2019-05-30T19:23:34.185Z,91.20
2019-05-30T19:26:03.938Z,91.40
2019-05-30T19:28:34.557Z,91.60
2019-05-30T19:31:07.444Z,91.80
2019-05-30T19:33:37.224Z,91.80
2019-05-30T19:36:06.923Z,91.60
2019-05-30T19:38:37.624Z,91.70
2019-05-30T19:41:07.548Z,92.20
2019-05-30T19:43:38.063Z,92.20
2019-05-30T19:46:07.834Z,92.10
2019-05-30T19:48:38.460Z,92.70
2019-05-30T19:51:08.447Z,93.30
2019-05-30T19:53:39.157Z,93.80
2019-05-30T19:56:08.933Z,93.60
2019-05-30T19:58:39.779Z,94.00
2019-05-30T20:01:09.493Z,94.20
2019-05-30T20:03:45.153Z,94.20
2019-05-30T20:06:11.631Z,94.20
2019-05-30T20:08:51.331Z,94.50
2019-05-30T20:11:12.562Z,94.90
2019-05-30T20:13:42.181Z,94.70
2019-05-30T20:16:11.832Z,94.80
2019-05-30T20:18:41.795Z,95.20
2019-05-30T20:21:11.767Z,95.10
2019-05-30T20:23:52.723Z,95.10
2019-05-30T20:26:12.655Z,95.00
2019-05-30T20:28:42.961Z,95.10
2019-05-30T20:31:12.934Z,95.40
2019-05-30T20:33:42.706Z,95.30
2019-05-30T20:36:12.320Z,95.40
2019-05-30T20:38:42.904Z,95.30
2019-05-30T20:41:13.052Z,95.20
2019-05-30T20:43:43.518Z,95.30
2019-05-30T20:46:22.743Z,95.40
2019-05-30T20:48:45.070Z,95.80
2019-05-30T20:51:21.214Z,95.90
2019-05-30T20:53:48.027Z,95.80
2019-05-30T20:56:17.678Z,95.80
2019-05-30T20:58:47.430Z,95.30
2019-05-30T21:01:16.952Z,95.60
2019-05-30T21:03:46.558Z,96.40
2019-05-30T21:06:16.528Z,96.80
2019-05-30T21:08:47.987Z,96.90
2019-05-30T21:11:18.014Z,97.20
2019-05-30T21:13:49.189Z,97.10
2019-05-30T21:16:21.781Z,97.00
2019-05-30T21:18:53.334Z,96.90
2019-05-30T21:21:22.920Z,96.90
2019-05-30T21:23:52.617Z,96.90
2019-05-30T21:26:22.212Z,96.90
2019-05-30T21:28:51.873Z,97.10
2019-05-30T21:31:21.491Z,97.00
2019-05-30T21:33:51.340Z,97.00
2019-05-30T21:36:21.321Z,97.00
2019-05-30T21:38:51.082Z,97.10
2019-05-30T21:41:20.664Z,97.20
2019-05-30T21:43:50.333Z,97.40
2019-05-30T21:46:20.078Z,97.20
2019-05-30T21:48:49.721Z,97.40
2019-05-30T21:51:19.339Z,97.70
2019-05-30T21:53:49.730Z,97.90
2019-05-30T21:56:19.534Z,98.00
2019-05-30T21:58:50.372Z,98.40
2019-05-30T22:01:20.774Z,98.90
2019-05-30T22:03:51.594Z,99.00
2019-05-30T22:06:21.231Z,98.90
2019-05-30T22:08:51.525Z,98.60
2019-05-30T22:11:21.722Z,98.40
2019-05-30T22:13:52.038Z,98.20
2019-05-30T22:16:21.818Z,98.10
2019-05-30T22:18:52.262Z,98.10
2019-05-30T22:21:23.383Z,98.10
2019-05-30T22:23:53.171Z,98.00
2019-05-30T22:26:22.829Z,97.80
2019-05-30T22:28:52.767Z,97.70
2019-05-30T22:31:22.770Z,97.90
2019-05-30T22:33:53.287Z,98.00
2019-05-30T22:36:23.078Z,98.10
2019-05-30T22:38:53.129Z,98.10
2019-05-30T22:41:22.974Z,98.00
2019-05-30T22:43:52.901Z,97.70
2019-05-30T22:46:22.761Z,97.50
2019-05-30T22:48:52.910Z,97.80
2019-05-30T22:51:27.424Z,98.20
2019-05-30T22:53:55.585Z,98.60
2019-05-30T22:56:25.151Z,98.90
2019-05-30T22:58:55.792Z,99.40
2019-05-30T23:01:26.549Z,99.70
2019-05-30T23:03:57.251Z,99.90
2019-05-30T23:06:27.260Z,99.90
2019-05-30T23:08:56.996Z,99.70
2019-05-30T23:11:26.896Z,99.30
2019-05-30T23:13:56.406Z,98.90
2019-05-30T23:16:26.035Z,98.90
2019-05-30T23:18:56.748Z,99.10
2019-05-30T23:21:26.684Z,99.20
2019-05-30T23:23:57.303Z,99.50
2019-05-30T23:26:27.241Z,99.60
2019-05-30T23:28:57.983Z,99.60
2019-05-30T23:31:27.720Z,99.60
2019-05-30T23:33:58.645Z,99.60
2019-05-30T23:36:31.610Z,99.40
2019-05-30T23:39:01.254Z,99.30
2019-05-30T23:41:32.084Z,99.20
2019-05-30T23:44:10.752Z,99.10
2019-05-30T23:46:33.045Z,98.90
2019-05-30T23:49:03.952Z,98.90
2019-05-30T23:51:33.572Z,98.90
2019-05-30T23:54:03.235Z,98.90
2019-05-30T23:56:32.873Z,98.80
2019-05-30T23:59:02.559Z,98.80
